sensor_id;sensor_type;location;lat;lon;timestamp;pressure;altitude;pressure_sealevel;temperature;humidity
71889;BME280;59762;49.998;14.858;2022-12-07T00:02:17;97046.19;;;1.17;100.00
71889;BME280;59762;49.998;14.858;2022-12-07T00:04:43;97051.59;;;1.16;100.00
71889;BME280;59762;49.998;14.858;2022-12-07T00:07:09;97041.25;;;1.06;100.00
71889;BME280;59762;49.998;14.858;2022-12-07T00:09:34;97037.66;;;1.07;100.00
71889;BME280;59762;49.998;14.858;2022-12-07T00:12:00;97035.53;;;1.11;100.00
71889;BME280;59762;49.998;14.858;2022-12-07T00:14:25;97041.44;;;1.13;100.00
71889;BME280;59762;49.998;14.858;2022-12-07T00:16:51;97040.13;;;1.17;100.00
71889;BME280;59762;49.998;14.858;2022-12-07T00:19:18;97039.94;;;1.10;100.00
71889;BME280;59762;49.998;14.858;2022-12-07T00:21:44;97036.50;;;1.18;100.00
71889;BME280;59762;49.998;14.858;2022-12-07T00:24:10;97046.69;;;1.13;100.00
71889;BME280;59762;49.998;14.858;2022-12-07T00:26:38;97045.69;;;1.06;100.00
71889;BME280;59762;49.998;14.858;2022-12-07T00:29:12;97036.50;;;1.18;100.00
71889;BME280;59762;49.998;14.858;2022-12-07T00:31:40;97049.94;;;1.15;100.00
71889;BME280;59762;49.998;14.858;2022-12-07T00:34:06;97042.41;;;1.20;100.00
71889;BME280;59762;49.998;14.858;2022-12-07T00:36:32;97048.63;;;1.19;100.00
71889;BME280;59762;49.998;14.858;2022-12-07T00:38:59;97047.31;;;1.15;100.00
71889;BME280;59762;49.998;14.858;2022-12-07T00:41:27;97051.44;;;1.17;100.00
71889;BME280;59762;49.998;14.858;2022-12-07T00:43:53;97037.00;;;1.21;100.00
71889;BME280;59762;49.998;14.858;2022-12-07T00:46:19;97039.31;;;1.16;100.00
71889;BME280;59762;49.998;14.858;2022-12-07T00:48:46;97037.31;;;1.18;100.00
71889;BME280;59762;49.998;14.858;2022-12-07T00:51:14;97033.56;;;1.13;100.00
71889;BME280;59762;49.998;14.858;2022-12-07T00:53:40;97042.25;;;1.13;100.00
71889;BME280;59762;49.998;14.858;2022-12-07T00:56:18;97041.25;;;1.14;100.00
71889;BME280;59762;49.998;14.858;2022-12-07T00:58:49;97033.88;;;1.18;100.00
71889;BME280;59762;49.998;14.858;2022-12-07T01:01:15;97031.94;;;1.20;100.00
71889;BME280;59762;49.998;14.858;2022-12-07T01:03:40;97032.75;;;1.20;100.00
71889;BME280;59762;49.998;14.858;2022-12-07T01:06:06;97036.31;;;1.27;100.00
71889;BME280;59762;49.998;14.858;2022-12-07T01:08:33;97036.00;;;1.22;100.00
71889;BME280;59762;49.998;14.858;2022-12-07T01:11:11;97035.19;;;1.22;100.00
71889;BME280;59762;49.998;14.858;2022-12-07T01:13:37;97031.75;;;1.21;100.00
71889;BME280;59762;49.998;14.858;2022-12-07T01:16:04;97038.94;;;1.27;100.00
71889;BME280;59762;49.998;14.858;2022-12-07T01:18:32;97037.81;;;1.22;100.00
71889;BME280;59762;49.998;14.858;2022-12-07T01:23:24;97029.31;;;1.20;100.00
71889;BME280;59762;49.998;14.858;2022-12-07T01:25:57;97033.72;;;1.19;100.00
71889;BME280;59762;49.998;14.858;2022-12-07T01:28:23;97033.56;;;1.21;100.00
71889;BME280;59762;49.998;14.858;2022-12-07T01:31:04;97042.88;;;1.32;100.00
71889;BME280;59762;49.998;14.858;2022-12-07T01:33:33;97041.09;;;1.24;100.00
71889;BME280;59762;49.998;14.858;2022-12-07T01:38:50;97044.19;;;1.27;100.00
71889;BME280;59762;49.998;14.858;2022-12-07T01:41:18;97043.69;;;1.32;100.00
71889;BME280;59762;49.998;14.858;2022-12-07T01:44:16;97038.31;;;1.25;100.00
71889;BME280;59762;49.998;14.858;2022-12-07T01:46:52;97037.13;;;1.28;100.00
71889;BME280;59762;49.998;14.858;2022-12-07T01:49:35;97037.50;;;1.25;100.00
71889;BME280;59762;49.998;14.858;2022-12-07T01:54:46;97022.88;;;1.22;100.00
71889;BME280;59762;49.998;14.858;2022-12-07T01:57:15;97028.00;;;1.24;100.00
71889;BME280;59762;49.998;14.858;2022-12-07T01:59:42;97027.63;;;1.19;100.00
71889;BME280;59762;49.998;14.858;2022-12-07T02:02:17;97025.38;;;1.24;100.00
71889;BME280;59762;49.998;14.858;2022-12-07T02:04:43;97024.69;;;1.22;100.00
71889;BME280;59762;49.998;14.858;2022-12-07T02:07:10;97020.75;;;1.18;100.00
71889;BME280;59762;49.998;14.858;2022-12-07T02:09:35;97020.44;;;1.21;100.00
71889;BME280;59762;49.998;14.858;2022-12-07T02:12:02;97032.56;;;1.22;100.00
71889;BME280;59762;49.998;14.858;2022-12-07T02:14:27;97018.81;;;1.20;100.00
71889;BME280;59762;49.998;14.858;2022-12-07T02:17:25;97024.06;;;1.20;100.00
71889;BME280;59762;49.998;14.858;2022-12-07T02:22:39;97024.53;;;1.23;100.00
71889;BME280;59762;49.998;14.858;2022-12-07T02:30:52;97017.63;;;1.22;100.00
71889;BME280;59762;49.998;14.858;2022-12-07T02:33:31;97024.38;;;1.25;100.00
71889;BME280;59762;49.998;14.858;2022-12-07T02:36:02;97026.16;;;1.33;100.00
71889;BME280;59762;49.998;14.858;2022-12-07T02:38:45;97027.50;;;1.29;100.00
71889;BME280;59762;49.998;14.858;2022-12-07T02:41:20;97026.19;;;1.24;100.00
71889;BME280;59762;49.998;14.858;2022-12-07T02:43:53;97028.31;;;1.21;100.00
71889;BME280;59762;49.998;14.858;2022-12-07T02:46:33;97026.31;;;1.31;100.00
71889;BME280;59762;49.998;14.858;2022-12-07T02:49:00;97023.69;;;1.31;100.00
71889;BME280;59762;49.998;14.858;2022-12-07T02:51:30;97016.81;;;1.38;100.00
71889;BME280;59762;49.998;14.858;2022-12-07T02:53:56;97019.75;;;1.35;100.00
71889;BME280;59762;49.998;14.858;2022-12-07T02:59:28;97014.69;;;1.34;100.00
71889;BME280;59762;49.998;14.858;2022-12-07T03:08:02;97012.38;;;1.39;100.00
71889;BME280;59762;49.998;14.858;2022-12-07T03:16:11;97012.22;;;1.32;100.00
71889;BME280;59762;49.998;14.858;2022-12-07T03:18:53;97000.56;;;1.35;100.00
71889;BME280;59762;49.998;14.858;2022-12-07T03:21:34;96994.69;;;1.24;100.00
71889;BME280;59762;49.998;14.858;2022-12-07T03:24:07;96996.13;;;1.35;100.00
71889;BME280;59762;49.998;14.858;2022-12-07T03:26:37;96988.47;;;1.25;100.00
71889;BME280;59762;49.998;14.858;2022-12-07T03:29:11;96995.50;;;1.25;100.00
71889;BME280;59762;49.998;14.858;2022-12-07T03:31:48;96985.50;;;1.29;100.00
71889;BME280;59762;49.998;14.858;2022-12-07T03:34:24;96986.16;;;1.22;100.00
71889;BME280;59762;49.998;14.858;2022-12-07T03:39:44;96984.34;;;1.15;100.00
71889;BME280;59762;49.998;14.858;2022-12-07T03:42:12;96985.84;;;1.09;100.00
71889;BME280;59762;49.998;14.858;2022-12-07T03:44:39;96973.72;;;1.16;100.00
71889;BME280;59762;49.998;14.858;2022-12-07T03:49:51;96975.34;;;1.09;100.00
71889;BME280;59762;49.998;14.858;2022-12-07T03:52:41;96964.53;;;1.20;100.00
71889;BME280;59762;49.998;14.858;2022-12-07T03:55:16;96970.94;;;1.10;100.00
71889;BME280;59762;49.998;14.858;2022-12-07T03:57:47;96961.59;;;1.07;100.00
71889;BME280;59762;49.998;14.858;2022-12-07T04:00:15;96962.91;;;1.03;100.00
71889;BME280;59762;49.998;14.858;2022-12-07T04:02:42;96969.63;;;1.06;100.00
71889;BME280;59762;49.998;14.858;2022-12-07T04:05:08;96958.81;;;1.09;100.00
71889;BME280;59762;49.998;14.858;2022-12-07T04:07:34;96948.31;;;1.09;100.00
71889;BME280;59762;49.998;14.858;2022-12-07T04:10:00;96956.19;;;1.00;100.00
71889;BME280;59762;49.998;14.858;2022-12-07T04:12:26;96956.19;;;1.09;100.00
71889;BME280;59762;49.998;14.858;2022-12-07T04:14:51;96951.94;;;1.08;100.00
71889;BME280;59762;49.998;14.858;2022-12-07T04:17:17;96958.16;;;0.98;100.00
71889;BME280;59762;49.998;14.858;2022-12-07T04:19:42;96953.88;;;1.06;100.00
71889;BME280;59762;49.998;14.858;2022-12-07T04:22:08;96956.84;;;1.03;100.00
71889;BME280;59762;49.998;14.858;2022-12-07T04:24:34;96949.81;;;1.03;100.00
71889;BME280;59762;49.998;14.858;2022-12-07T04:27:00;96944.69;;;1.10;100.00
71889;BME280;59762;49.998;14.858;2022-12-07T04:29:26;96949.94;;;1.18;100.00
71889;BME280;59762;49.998;14.858;2022-12-07T04:31:52;96950.63;;;1.04;100.00
71889;BME280;59762;49.998;14.858;2022-12-07T04:34:18;96949.78;;;1.11;100.00
71889;BME280;59762;49.998;14.858;2022-12-07T04:36:45;96952.44;;;1.03;100.00
71889;BME280;59762;49.998;14.858;2022-12-07T04:39:37;96953.72;;;1.07;100.00
71889;BME280;59762;49.998;14.858;2022-12-07T04:42:03;96953.72;;;1.07;100.00
71889;BME280;59762;49.998;14.858;2022-12-07T04:44:30;96955.19;;;1.10;100.00
71889;BME280;59762;49.998;14.858;2022-12-07T04:46:55;96952.88;;;1.15;100.00
71889;BME280;59762;49.998;14.858;2022-12-07T04:49:23;96958.81;;;1.09;100.00
71889;BME280;59762;49.998;14.858;2022-12-07T04:51:49;96955.22;;;0.93;100.00
71889;BME280;59762;49.998;14.858;2022-12-07T04:54:15;96958.66;;;1.02;100.00
71889;BME280;59762;49.998;14.858;2022-12-07T04:56:41;96955.19;;;1.01;100.00
71889;BME280;59762;49.998;14.858;2022-12-07T04:59:07;96954.88;;;1.05;100.00
71889;BME280;59762;49.998;14.858;2022-12-07T05:01:33;96950.78;;;1.02;100.00
71889;BME280;59762;49.998;14.858;2022-12-07T05:03:59;96951.63;;;1.03;100.00
71889;BME280;59762;49.998;14.858;2022-12-07T05:06:25;96948.69;;;0.97;100.00
71889;BME280;59762;49.998;14.858;2022-12-07T05:08:51;96951.94;;;0.99;100.00
71889;BME280;59762;49.998;14.858;2022-12-07T05:11:17;96947.69;;;0.98;100.00
71889;BME280;59762;49.998;14.858;2022-12-07T05:14:03;96946.38;;;0.94;100.00
71889;BME280;59762;49.998;14.858;2022-12-07T05:16:29;96949.63;;;0.96;100.00
71889;BME280;59762;49.998;14.858;2022-12-07T05:18:55;96948.31;;;0.92;100.00
71889;BME280;59762;49.998;14.858;2022-12-07T05:21:21;96947.38;;;0.93;100.00
71889;BME280;59762;49.998;14.858;2022-12-07T05:23:46;96943.75;;;0.94;100.00
71889;BME280;59762;49.998;14.858;2022-12-07T05:26:12;96952.75;;;0.92;100.00
71889;BME280;59762;49.998;14.858;2022-12-07T05:28:38;96948.31;;;0.92;100.00
71889;BME280;59762;49.998;14.858;2022-12-07T05:31:03;96949.16;;;0.93;100.00
71889;BME280;59762;49.998;14.858;2022-12-07T05:33:29;96945.75;;;0.84;100.00
71889;BME280;59762;49.998;14.858;2022-12-07T05:35:55;96950.00;;;0.85;100.00
71889;BME280;59762;49.998;14.858;2022-12-07T05:38:20;96944.09;;;0.83;100.00
71889;BME280;59762;49.998;14.858;2022-12-07T05:40:46;96937.53;;;0.79;100.00
71889;BME280;59762;49.998;14.858;2022-12-07T05:43:12;96938.38;;;0.71;100.00
71889;BME280;59762;49.998;14.858;2022-12-07T05:45:37;96936.41;;;0.73;100.00
71889;BME280;59762;49.998;14.858;2022-12-07T05:48:03;96938.53;;;0.70;100.00
71889;BME280;59762;49.998;14.858;2022-12-07T05:50:29;96942.31;;;0.75;100.00
71889;BME280;59762;49.998;14.858;2022-12-07T05:52:54;96939.50;;;0.69;100.00
71889;BME280;59762;49.998;14.858;2022-12-07T05:55:20;96930.50;;;0.63;100.00
71889;BME280;59762;49.998;14.858;2022-12-07T05:57:46;96934.63;;;0.58;100.00
71889;BME280;59762;49.998;14.858;2022-12-07T06:00:32;96934.44;;;0.51;100.00
71889;BME280;59762;49.998;14.858;2022-12-07T06:02:58;96938.88;;;0.50;100.00
71889;BME280;59762;49.998;14.858;2022-12-07T06:05:23;96939.19;;;0.47;100.00
71889;BME280;59762;49.998;14.858;2022-12-07T06:07:49;96937.88;;;0.43;100.00
71889;BME280;59762;49.998;14.858;2022-12-07T06:10:15;96934.59;;;0.41;100.00
71889;BME280;59762;49.998;14.858;2022-12-07T06:12:40;96946.22;;;0.39;100.00
71889;BME280;59762;49.998;14.858;2022-12-07T06:15:09;96939.34;;;0.38;100.00
71889;BME280;59762;49.998;14.858;2022-12-07T06:17:36;96935.41;;;0.42;100.00
71889;BME280;59762;49.998;14.858;2022-12-07T06:20:03;96940.00;;;0.48;100.00
71889;BME280;59762;49.998;14.858;2022-12-07T06:22:28;96938.38;;;0.47;100.00
71889;BME280;59762;49.998;14.858;2022-12-07T06:24:54;96939.19;;;0.47;100.00
71889;BME280;59762;49.998;14.858;2022-12-07T06:27:20;96939.84;;;0.49;100.00
71889;BME280;59762;49.998;14.858;2022-12-07T06:29:46;96945.72;;;0.52;100.00
71889;BME280;59762;49.998;14.858;2022-12-07T06:32:11;96943.78;;;0.45;100.00
71889;BME280;59762;49.998;14.858;2022-12-07T06:34:37;96940.47;;;0.43;100.00
71889;BME280;59762;49.998;14.858;2022-12-07T06:37:03;96939.16;;;0.39;100.00
71889;BME280;59762;49.998;14.858;2022-12-07T06:39:29;96938.84;;;0.34;100.00
71889;BME280;59762;49.998;14.858;2022-12-07T06:41:55;96936.56;;;0.23;100.00
71889;BME280;59762;49.998;14.858;2022-12-07T06:44:21;96947.34;;;0.20;100.00
71889;BME280;59762;49.998;14.858;2022-12-07T06:46:47;96943.91;;;0.19;100.00
71889;BME280;59762;49.998;14.858;2022-12-07T06:49:14;96944.53;;;0.13;100.00
71889;BME280;59762;49.998;14.858;2022-12-07T06:51:39;96945.03;;;0.09;100.00
71889;BME280;59762;49.998;14.858;2022-12-07T06:54:10;96938.50;;;0.05;100.00
71889;BME280;59762;49.998;14.858;2022-12-07T06:56:36;96942.75;;;0.06;100.00
71889;BME280;59762;49.998;14.858;2022-12-07T06:59:03;96942.41;;;0.01;100.00
71889;BME280;59762;49.998;14.858;2022-12-07T07:01:29;96946.84;;;0.00;100.00
71889;BME280;59762;49.998;14.858;2022-12-07T07:03:54;96950.41;;;-0.01;100.00
71889;BME280;59762;49.998;14.858;2022-12-07T07:06:20;96950.28;;;0.01;100.00
71889;BME280;59762;49.998;14.858;2022-12-07T07:08:46;96944.66;;;-0.05;100.00
71889;BME280;59762;49.998;14.858;2022-12-07T07:11:11;96953.19;;;-0.03;100.00
71889;BME280;59762;49.998;14.858;2022-12-07T07:13:37;96958.41;;;-0.11;100.00
71889;BME280;59762;49.998;14.858;2022-12-07T07:16:03;96958.25;;;-0.09;100.00
71889;BME280;59762;49.998;14.858;2022-12-07T07:18:29;96953.84;;;-0.09;100.00
71889;BME280;59762;49.998;14.858;2022-12-07T07:20:54;96957.94;;;-0.06;100.00
71889;BME280;59762;49.998;14.858;2022-12-07T07:23:21;96959.94;;;0.00;100.00
71889;BME280;59762;49.998;14.858;2022-12-07T07:25:47;96947.94;;;-0.11;100.00
71889;BME280;59762;49.998;14.858;2022-12-07T07:28:14;96958.41;;;-0.11;100.00
71889;BME280;59762;49.998;14.858;2022-12-07T07:30:40;96963.69;;;-0.03;100.00
71889;BME280;59762;49.998;14.858;2022-12-07T07:33:06;96961.06;;;-0.03;100.00
71889;BME280;59762;49.998;14.858;2022-12-07T07:35:33;96965.84;;;0.10;100.00
71889;BME280;59762;49.998;14.858;2022-12-07T07:38:00;96959.78;;;0.10;100.00
71889;BME280;59762;49.998;14.858;2022-12-07T07:40:26;96967.66;;;0.18;100.00
71889;BME280;59762;49.998;14.858;2022-12-07T07:42:53;96961.59;;;0.25;100.00
71889;BME280;59762;49.998;14.858;2022-12-07T07:45:20;96952.41;;;0.21;100.00
71889;BME280;59762;49.998;14.858;2022-12-07T07:47:47;96958.47;;;0.14;100.00
71889;BME280;59762;49.998;14.858;2022-12-07T07:50:12;96963.06;;;0.20;100.00
71889;BME280;59762;49.998;14.858;2022-12-07T07:52:38;96962.09;;;0.29;100.00
71889;BME280;59762;49.998;14.858;2022-12-07T07:55:05;96954.25;;;0.45;100.00
71889;BME280;59762;49.998;14.858;2022-12-07T07:57:31;96958.03;;;0.59;100.00
71889;BME280;59762;49.998;14.858;2022-12-07T07:59:56;96957.22;;;0.67;100.00
71889;BME280;59762;49.998;14.858;2022-12-07T08:02:22;96959.16;;;0.57;100.00
71889;BME280;59762;49.998;14.858;2022-12-07T08:04:48;96955.56;;;0.41;100.00
71889;BME280;59762;49.998;14.858;2022-12-07T08:07:15;96968.97;;;0.30;100.00
71889;BME280;59762;49.998;14.858;2022-12-07T08:09:40;96968.00;;;0.31;100.00
71889;BME280;59762;49.998;14.858;2022-12-07T08:12:06;96976.50;;;0.33;100.00
71889;BME280;59762;49.998;14.858;2022-12-07T08:14:32;96977.78;;;0.21;100.00
71889;BME280;59762;49.998;14.858;2022-12-07T08:16:58;96972.75;;;0.28;100.00
71889;BME280;59762;49.998;14.858;2022-12-07T08:19:23;96974.41;;;0.37;100.00
71889;BME280;59762;49.998;14.858;2022-12-07T08:21:49;96977.50;;;0.40;100.00
71889;BME280;59762;49.998;14.858;2022-12-07T08:24:15;96963.75;;;0.55;100.00
71889;BME280;59762;49.998;14.858;2022-12-07T08:26:42;96953.78;;;0.50;100.00
71889;BME280;59762;49.998;14.858;2022-12-07T08:29:07;96949.16;;;0.52;100.00
71889;BME280;59762;49.998;14.858;2022-12-07T08:31:33;96948.84;;;0.63;100.00
71889;BME280;59762;49.998;14.858;2022-12-07T08:33:59;96949.00;;;0.78;100.00
71889;BME280;59762;49.998;14.858;2022-12-07T08:36:25;96949.63;;;0.88;100.00
71889;BME280;59762;49.998;14.858;2022-12-07T08:38:50;96951.09;;;1.15;100.00
71889;BME280;59762;49.998;14.858;2022-12-07T08:41:16;96950.53;;;1.36;100.00
71889;BME280;59762;49.998;14.858;2022-12-07T08:43:42;96957.38;;;1.54;100.00
71889;BME280;59762;49.998;14.858;2022-12-07T08:48:57;96953.06;;;1.69;100.00
71889;BME280;59762;49.998;14.858;2022-12-07T08:51:26;96959.38;;;1.43;100.00
71889;BME280;59762;49.998;14.858;2022-12-07T08:53:53;96949.22;;;1.40;100.00
71889;BME280;59762;49.998;14.858;2022-12-07T08:56:20;96955.06;;;1.50;100.00
71889;BME280;59762;49.998;14.858;2022-12-07T08:58:47;96954.75;;;1.45;100.00
71889;BME280;59762;49.998;14.858;2022-12-07T09:01:12;96969.03;;;1.51;100.00
71889;BME280;59762;49.998;14.858;2022-12-07T09:03:38;96960.44;;;1.65;100.00
71889;BME280;59762;49.998;14.858;2022-12-07T09:06:04;96966.19;;;1.69;100.00
71889;BME280;59762;49.998;14.858;2022-12-07T09:08:33;96969.09;;;1.35;100.00
71889;BME280;59762;49.998;14.858;2022-12-07T09:11:00;96975.53;;;0.83;100.00
71889;BME280;59762;49.998;14.858;2022-12-07T09:13:26;96964.22;;;0.66;100.00
71889;BME280;59762;49.998;14.858;2022-12-07T09:15:52;96980.78;;;0.50;100.00
71889;BME280;59762;49.998;14.858;2022-12-07T09:18:17;96965.72;;;0.61;100.00
71889;BME280;59762;49.998;14.858;2022-12-07T09:20:43;96956.38;;;0.83;100.00
71889;BME280;59762;49.998;14.858;2022-12-07T09:23:08;96956.53;;;0.89;100.00
71889;BME280;59762;49.998;14.858;2022-12-07T09:25:34;96956.53;;;0.97;100.00
71889;BME280;59762;49.998;14.858;2022-12-07T09:28:00;96951.63;;;1.03;100.00
71889;BME280;59762;49.998;14.858;2022-12-07T09:30:27;96944.06;;;0.91;100.00
71889;BME280;59762;49.998;14.858;2022-12-07T09:32:56;96959.31;;;0.88;100.00
71889;BME280;59762;49.998;14.858;2022-12-07T09:35:23;96956.56;;;0.81;100.00
71889;BME280;59762;49.998;14.858;2022-12-07T09:37:49;96952.44;;;0.79;100.00
71889;BME280;59762;49.998;14.858;2022-12-07T09:40:16;96951.31;;;0.81;100.00
71889;BME280;59762;49.998;14.858;2022-12-07T09:42:45;96956.38;;;0.74;100.00
71889;BME280;59762;49.998;14.858;2022-12-07T09:45:19;96945.06;;;0.74;100.00
71889;BME280;59762;49.998;14.858;2022-12-07T09:47:46;96953.94;;;0.73;100.00
71889;BME280;59762;49.998;14.858;2022-12-07T09:50:15;96956.22;;;0.84;100.00
71889;BME280;59762;49.998;14.858;2022-12-07T09:52:43;96957.50;;;0.88;100.00
71889;BME280;59762;49.998;14.858;2022-12-07T09:55:14;96947.50;;;0.92;100.00
71889;BME280;59762;49.998;14.858;2022-12-07T09:57:40;96949.50;;;0.90;100.00
71889;BME280;59762;49.998;14.858;2022-12-07T10:00:13;96944.88;;;0.92;100.00
71889;BME280;59762;49.998;14.858;2022-12-07T10:02:47;96943.88;;;1.01;100.00
71889;BME280;59762;49.998;14.858;2022-12-07T10:05:16;96936.19;;;1.08;100.00
71889;BME280;59762;49.998;14.858;2022-12-07T10:07:41;96942.44;;;1.07;100.00
71889;BME280;59762;49.998;14.858;2022-12-07T10:10:23;96939.75;;;1.15;100.00
71889;BME280;59762;49.998;14.858;2022-12-07T10:12:58;96942.84;;;1.35;100.00
71889;BME280;59762;49.998;14.858;2022-12-07T10:15:53;96942.66;;;1.36;100.00
71889;BME280;59762;49.998;14.858;2022-12-07T10:18:28;96941.84;;;1.36;100.00
71889;BME280;59762;49.998;14.858;2022-12-07T10:21:09;96938.91;;;1.39;100.00
71889;BME280;59762;49.998;14.858;2022-12-07T10:23:38;96940.19;;;1.43;100.00
71889;BME280;59762;49.998;14.858;2022-12-07T10:26:26;96945.94;;;1.46;100.00
71889;BME280;59762;49.998;14.858;2022-12-07T10:28:53;96938.72;;;1.40;100.00
71889;BME280;59762;49.998;14.858;2022-12-07T10:31:22;96943.81;;;1.42;100.00
71889;BME280;59762;49.998;14.858;2022-12-07T10:33:53;96939.50;;;1.49;100.00
71889;BME280;59762;49.998;14.858;2022-12-07T10:36:42;96933.78;;;1.37;100.00
71889;BME280;59762;49.998;14.858;2022-12-07T10:39:18;96930.84;;;1.40;100.00
71889;BME280;59762;49.998;14.858;2022-12-07T10:42:01;96937.38;;;1.44;100.00
71889;BME280;59762;49.998;14.858;2022-12-07T10:44:30;96926.88;;;1.44;100.00
71889;BME280;59762;49.998;14.858;2022-12-07T10:47:29;96919.63;;;1.55;100.00
71889;BME280;59762;49.998;14.858;2022-12-07T11:01:23;96930.28;;;1.61;100.00
71889;BME280;59762;49.998;14.858;2022-12-07T11:06:37;96928.47;;;1.62;100.00
71889;BME280;59762;49.998;14.858;2022-12-07T11:11:59;96920.22;;;1.73;100.00
71889;BME280;59762;49.998;14.858;2022-12-07T11:14:36;96916.84;;;1.87;100.00
71889;BME280;59762;49.998;14.858;2022-12-07T11:17:09;96913.88;;;1.90;100.00
71889;BME280;59762;49.998;14.858;2022-12-07T11:22:36;96910.78;;;1.87;100.00
71889;BME280;59762;49.998;14.858;2022-12-07T11:25:18;96904.28;;;2.06;100.00
71889;BME280;59762;49.998;14.858;2022-12-07T11:39:16;96906.31;;;2.18;100.00
71889;BME280;59762;49.998;14.858;2022-12-07T11:41:52;96895.97;;;2.17;100.00
71889;BME280;59762;49.998;14.858;2022-12-07T11:47:05;96885.16;;;2.12;100.00
71889;BME280;59762;49.998;14.858;2022-12-07T11:50:03;96882.00;;;1.93;100.00
71889;BME280;59762;49.998;14.858;2022-12-07T11:52:45;96883.53;;;1.88;100.00
71889;BME280;59762;49.998;14.858;2022-12-07T11:55:21;96891.59;;;1.86;100.00
71889;BME280;59762;49.998;14.858;2022-12-07T11:57:56;96880.75;;;1.81;100.00
71889;BME280;59762;49.998;14.858;2022-12-07T12:00:24;96883.91;;;1.76;100.00
71889;BME280;59762;49.998;14.858;2022-12-07T12:03:10;96885.72;;;1.76;100.00
71889;BME280;59762;49.998;14.858;2022-12-07T12:05:38;96885.34;;;1.87;100.00
71889;BME280;59762;49.998;14.858;2022-12-07T12:08:21;96882.00;;;1.93;100.00
71889;BME280;59762;49.998;14.858;2022-12-07T12:14:16;96869.81;;;2.00;100.00
71889;BME280;59762;49.998;14.858;2022-12-07T12:19:36;96872.59;;;1.99;100.00
71889;BME280;59762;49.998;14.858;2022-12-07T12:22:17;96867.78;;;2.11;100.00
71889;BME280;59762;49.998;14.858;2022-12-07T12:24:47;96865.38;;;2.01;100.00
71889;BME280;59762;49.998;14.858;2022-12-07T12:27:32;96866.19;;;2.01;100.00
71889;BME280;59762;49.998;14.858;2022-12-07T12:30:01;96859.03;;;2.18;100.00
71889;BME280;59762;49.998;14.858;2022-12-07T12:32:40;96859.50;;;2.22;100.00
71889;BME280;59762;49.998;14.858;2022-12-07T12:35:29;96857.78;;;2.29;100.00
71889;BME280;59762;49.998;14.858;2022-12-07T12:38:31;96866.25;;;2.39;100.00
71889;BME280;59762;49.998;14.858;2022-12-07T12:41:00;96863.72;;;2.46;100.00
71889;BME280;59762;49.998;14.858;2022-12-07T12:43:47;96864.00;;;2.51;100.00
71889;BME280;59762;49.998;14.858;2022-12-07T12:49:36;96861.78;;;2.63;100.00
71889;BME280;59762;49.998;14.858;2022-12-07T12:54:37;96870.25;;;2.50;100.00
71889;BME280;59762;49.998;14.858;2022-12-07T12:57:27;96865.34;;;2.47;100.00
71889;BME280;59762;49.998;14.858;2022-12-07T13:02:32;96854.16;;;2.53;100.00
71889;BME280;59762;49.998;14.858;2022-12-07T13:18:04;96857.06;;;2.58;100.00
71889;BME280;59762;49.998;14.858;2022-12-07T13:20:44;96852.69;;;2.50;100.00
71889;BME280;59762;49.998;14.858;2022-12-07T13:23:10;96853.41;;;2.59;100.00
71889;BME280;59762;49.998;14.858;2022-12-07T13:25:41;96858.81;;;2.43;100.00
71889;BME280;59762;49.998;14.858;2022-12-07T13:30:50;96860.88;;;2.33;100.00
71889;BME280;59762;49.998;14.858;2022-12-07T13:33:19;96854.91;;;2.39;100.00
71889;BME280;59762;49.998;14.858;2022-12-07T13:35:45;96860.00;;;2.40;100.00
71889;BME280;59762;49.998;14.858;2022-12-07T13:38:27;96859.81;;;2.42;100.00
71889;BME280;59762;49.998;14.858;2022-12-07T13:41:17;96855.63;;;2.33;100.00
71889;BME280;59762;49.998;14.858;2022-12-07T13:43:44;96851.09;;;2.26;100.00
71889;BME280;59762;49.998;14.858;2022-12-07T13:46:11;96849.03;;;2.14;100.00
71889;BME280;59762;49.998;14.858;2022-12-07T13:48:47;96854.94;;;2.16;100.00
71889;BME280;59762;49.998;14.858;2022-12-07T13:51:39;96845.66;;;2.05;100.00
71889;BME280;59762;49.998;14.858;2022-12-07T13:54:10;96840.69;;;2.10;100.00
71889;BME280;59762;49.998;14.858;2022-12-07T13:56:37;96847.81;;;2.01;100.00
71889;BME280;59762;49.998;14.858;2022-12-07T13:59:13;96846.81;;;2.02;100.00
71889;BME280;59762;49.998;14.858;2022-12-07T14:01:39;96850.84;;;1.90;100.00
71889;BME280;59762;49.998;14.858;2022-12-07T14:04:36;96850.72;;;1.84;100.00
71889;BME280;59762;49.998;14.858;2022-12-07T14:07:20;96848.91;;;1.84;100.00
71889;BME280;59762;49.998;14.858;2022-12-07T14:09:59;96848.81;;;1.77;100.00
71889;BME280;59762;49.998;14.858;2022-12-07T14:12:26;96844.72;;;1.75;100.00
71889;BME280;59762;49.998;14.858;2022-12-07T14:14:53;96851.09;;;1.72;100.00
71889;BME280;59762;49.998;14.858;2022-12-07T14:17:22;96845.41;;;1.69;100.00
71889;BME280;59762;49.998;14.858;2022-12-07T14:19:53;96848.19;;;1.67;100.00
71889;BME280;59762;49.998;14.858;2022-12-07T14:24:46;96848.72;;;1.63;100.00
71889;BME280;59762;49.998;14.858;2022-12-07T14:27:22;96843.47;;;1.63;100.00
71889;BME280;59762;49.998;14.858;2022-12-07T14:29:51;96849.41;;;1.57;100.00
71889;BME280;59762;49.998;14.858;2022-12-07T14:32:28;96848.31;;;1.51;100.00
71889;BME280;59762;49.998;14.858;2022-12-07T14:35:14;96845.69;;;1.51;100.00
71889;BME280;59762;49.998;14.858;2022-12-07T14:37:41;96841.94;;;1.37;100.00
71889;BME280;59762;49.998;14.858;2022-12-07T14:40:09;96842.13;;;1.36;100.00
71889;BME280;59762;49.998;14.858;2022-12-07T14:42:37;96841.00;;;1.30;100.00
71889;BME280;59762;49.998;14.858;2022-12-07T14:45:05;96840.84;;;1.32;100.00
71889;BME280;59762;49.998;14.858;2022-12-07T14:47:31;96835.47;;;1.25;100.00
71889;BME280;59762;49.998;14.858;2022-12-07T14:49:57;96838.94;;;1.17;100.00
71889;BME280;59762;49.998;14.858;2022-12-07T14:52:26;96844.81;;;1.19;100.00